Time;durP1;ratioP1;P1;durP2;ratioP2;P2;SDS_P1;SDS_P2;PMS_P1;PMS_P2;Temp;Humidity;BMP_temperature;BMP_pressure;BME280_temperature;BME280_humidity;BME280_pressure;Samples;Min_cycle;Max_cycle;Signal;HPM_P1;HPM_P2
2023/10/12 00:01:59;;;;;;;10.07;5.77;;;;;;;;;;5015249;28;20218;-81
2023/10/12 00:04:26;;;;;;;11.03;6.40;;;;;;;;;;4999582;28;20303;-81
2023/10/12 00:06:53;;;;;;;16.43;8.50;;;;;;;;;;5018347;28;20294;-81
2023/10/12 00:09:24;;;;;;;17.50;9.47;;;;;;;;;;5002446;28;20278;-81
2023/10/12 00:11:57;;;;;;;14.23;8.53;;;;;;;;;;5019309;28;20667;-81
2023/10/12 00:14:32;;;;;;;15.30;8.40;;;;;;;;;;5002273;28;20198;-81
2023/10/12 00:16:58;;;;;;;21.20;11.87;;;;;;;;;;4994861;28;20243;-81
2023/10/12 00:19:25;;;;;;;20.67;11.47;;;;;;;;;;5000567;28;20199;-80
2023/10/12 00:22:02;;;;;;;13.83;8.20;;;;;;;;;;5018221;28;20273;-80
2023/10/12 00:24:30;;;;;;;16.93;7.70;;;;;;;;;;5016171;28;20175;-81
2023/10/12 00:26:58;;;;;;;20.87;10.50;;;;;;;;;;5006622;28;20274;-81
2023/10/12 00:29:24;;;;;;;17.47;9.00;;;;;;;;;;5004342;28;20198;-80
2023/10/12 00:31:52;;;;;;;17.57;8.77;;;;;;;;;;5003366;28;20286;-80
2023/10/12 00:34:23;;;;;;;16.37;9.50;;;;;;;;;;5023899;28;20182;-80
2023/10/12 00:36:52;;;;;;;16.67;9.50;;;;;;;;;;5006372;28;20187;-81
2023/10/12 00:39:21;;;;;;;16.73;8.37;;;;;;;;;;5014189;28;20188;-81
2023/10/12 00:41:51;;;;;;;14.87;8.10;;;;;;;;;;4996434;28;20293;-81
2023/10/12 00:44:26;;;;;;;12.33;6.90;;;;;;;;;;4996718;28;20269;-81
2023/10/12 00:46:58;;;;;;;12.23;7.20;;;;;;;;;;5028186;28;20204;-81
2023/10/12 00:49:28;;;;;;;12.27;6.97;;;;;;;;;;4998408;28;20183;-80
2023/10/12 00:52:08;;;;;;;17.17;8.50;;;;;;;;;;5015912;28;20214;-81
2023/10/12 00:57:03;;;;;;;23.10;11.20;;;;;;;;;;4998438;28;20227;-80
2023/10/12 00:59:39;;;;;;;19.80;8.83;;;;;;;;;;4997780;28;20187;-81
2023/10/12 01:02:08;;;;;;;18.27;8.40;;;;;;;;;;4998843;28;20283;-81
2023/10/12 01:04:36;;;;;;;18.63;9.33;;;;;;;;;;5018822;28;20179;-81
2023/10/12 01:07:06;;;;;;;11.27;7.23;;;;;;;;;;5011412;28;20191;-81
2023/10/12 01:09:45;;;;;;;11.80;5.50;;;;;;;;;;5009623;28;20179;-81
2023/10/12 01:12:14;;;;;;;10.87;5.80;;;;;;;;;;5008373;28;20211;-81
2023/10/12 01:14:45;;;;;;;16.37;7.40;;;;;;;;;;4998617;28;20182;-81
2023/10/12 01:17:35;;;;;;;12.17;6.10;;;;;;;;;;4993799;28;20234;-80
2023/10/12 01:19:59;;;;;;;10.93;5.73;;;;;;;;;;5012184;28;20191;-80
2023/10/12 01:22:31;;;;;;;10.97;5.60;;;;;;;;;;4981901;28;20235;-80
2023/10/12 01:25:00;;;;;;;7.80;4.90;;;;;;;;;;4998284;28;20225;-80
2023/10/12 01:27:27;;;;;;;14.60;7.93;;;;;;;;;;4997135;28;20199;-81
2023/10/12 01:29:54;;;;;;;12.20;6.40;;;;;;;;;;5002277;28;20185;-80
2023/10/12 01:32:22;;;;;;;13.50;6.67;;;;;;;;;;5002563;28;20210;-81
2023/10/12 01:34:52;;;;;;;8.67;5.67;;;;;;;;;;5010688;28;20179;-81
2023/10/12 01:37:28;;;;;;;9.53;5.87;;;;;;;;;;5017577;28;20670;-81
2023/10/12 01:39:57;;;;;;;11.37;6.10;;;;;;;;;;5013397;28;20187;-80
2023/10/12 01:45:17;;;;;;;12.13;6.90;;;;;;;;;;5012619;28;20570;-80
2023/10/12 01:47:44;;;;;;;11.17;5.33;;;;;;;;;;5019679;28;20424;-80
2023/10/12 01:50:11;;;;;;;7.40;5.40;;;;;;;;;;5006380;28;20669;-80
2023/10/12 01:52:37;;;;;;;10.43;5.00;;;;;;;;;;5022227;28;20296;-80
2023/10/12 01:55:16;;;;;;;7.07;4.43;;;;;;;;;;5025093;28;20178;-80
2023/10/12 01:57:53;;;;;;;9.30;4.83;;;;;;;;;;4983100;28;20185;-79
2023/10/12 02:00:26;;;;;;;12.33;5.17;;;;;;;;;;5005906;28;20182;-80
2023/10/12 02:05:46;;;;;;;16.17;6.77;;;;;;;;;;5005316;28;20194;-80
2023/10/12 02:08:16;;;;;;;11.50;5.27;;;;;;;;;;5016407;28;20183;-80
2023/10/12 02:10:55;;;;;;;9.20;5.00;;;;;;;;;;5022000;28;20179;-80
2023/10/12 02:13:24;;;;;;;8.63;4.33;;;;;;;;;;5001992;28;20203;-80
2023/10/12 02:15:50;;;;;;;8.00;4.80;;;;;;;;;;5020968;28;20689;-81
2023/10/12 02:18:19;;;;;;;10.43;5.07;;;;;;;;;;5009255;28;20218;-80
2023/10/12 02:26:36;;;;;;;11.63;6.10;;;;;;;;;;5020728;28;20210;-80
2023/10/12 02:29:11;;;;;;;9.70;5.20;;;;;;;;;;5010400;28;20270;-80
2023/10/12 02:34:25;;;;;;;9.57;4.30;;;;;;;;;;5019249;28;20277;-80
2023/10/12 02:39:41;;;;;;;9.10;5.17;;;;;;;;;;5011130;28;20187;-80
2023/10/12 02:47:23;;;;;;;10.33;5.20;;;;;;;;;;5017430;28;20210;-80
2023/10/12 02:49:49;;;;;;;8.43;5.07;;;;;;;;;;5007355;28;20650;-80
2023/10/12 02:52:16;;;;;;;9.90;4.77;;;;;;;;;;5021284;28;20203;-81
2023/10/12 02:54:54;;;;;;;11.93;5.23;;;;;;;;;;5014546;28;20179;-80
2023/10/12 02:57:24;;;;;;;6.53;4.57;;;;;;;;;;5007714;28;20179;-81
2023/10/12 03:00:12;;;;;;;10.77;4.77;;;;;;;;;;5011893;28;20190;-81
2023/10/12 03:02:44;;;;;;;9.93;4.93;;;;;;;;;;5022815;28;20693;-80
2023/10/12 03:05:17;;;;;;;8.87;5.40;;;;;;;;;;5007699;28;20187;-80
2023/10/12 03:07:44;;;;;;;9.47;5.10;;;;;;;;;;4990741;28;20179;-80
2023/10/12 03:10:25;;;;;;;13.17;5.60;;;;;;;;;;4995927;28;20194;-80
2023/10/12 03:12:55;;;;;;;9.40;5.00;;;;;;;;;;5006579;28;20218;-80
2023/10/12 03:15:40;;;;;;;7.13;4.47;;;;;;;;;;5017763;28;20722;-80
2023/10/12 03:18:12;;;;;;;8.73;4.73;;;;;;;;;;5009198;28;20183;-80
2023/10/12 03:20:38;;;;;;;9.27;5.67;;;;;;;;;;4995230;28;20561;-81
2023/10/12 03:23:16;;;;;;;22.57;9.20;;;;;;;;;;4994165;28;20221;-80
2023/10/12 03:25:51;;;;;;;17.17;7.90;;;;;;;;;;4991002;28;20187;-80
2023/10/12 03:28:30;;;;;;;20.00;9.70;;;;;;;;;;5005966;28;20176;-80
2023/10/12 03:31:18;;;;;;;14.70;7.50;;;;;;;;;;4992841;28;20203;-80
2023/10/12 03:33:46;;;;;;;12.50;6.30;;;;;;;;;;5005300;28;20202;-81
2023/10/12 03:36:22;;;;;;;10.20;5.70;;;;;;;;;;5011604;28;20263;-80
2023/10/12 03:39:06;;;;;;;7.83;5.07;;;;;;;;;;5003284;28;20191;-80
2023/10/12 03:47:14;;;;;;;8.63;4.97;;;;;;;;;;5009537;28;20690;-81
2023/10/12 03:52:20;;;;;;;11.37;6.47;;;;;;;;;;5014551;28;20682;-80
2023/10/12 04:02:47;;;;;;;7.83;4.97;;;;;;;;;;5010681;28;20309;-80
2023/10/12 04:18:42;;;;;;;7.43;4.90;;;;;;;;;;5009472;28;20716;-80
2023/10/12 04:21:22;;;;;;;10.10;5.97;;;;;;;;;;5005548;28;20207;-80
2023/10/12 04:24:24;;;;;;;10.50;6.90;;;;;;;;;;5000300;28;20684;-80
2023/10/12 04:29:08;;;;;;;12.07;5.60;;;;;;;;;;5008144;28;20215;-80
2023/10/12 04:31:34;;;;;;;11.23;5.47;;;;;;;;;;5007147;28;20862;-80
2023/10/12 04:36:35;;;;;;;9.60;6.33;;;;;;;;;;4993923;28;20319;-80
2023/10/12 04:47:04;;;;;;;12.07;5.87;;;;;;;;;;5012189;28;20247;-81
2023/10/12 04:52:08;;;;;;;13.90;6.80;;;;;;;;;;5007252;28;20606;-84
2023/10/12 04:57:16;;;;;;;9.07;5.27;;;;;;;;;;5012902;28;20197;-82
2023/10/12 04:59:50;;;;;;;11.13;5.97;;;;;;;;;;4999787;28;20277;-80
2023/10/12 05:02:28;;;;;;;10.77;6.53;;;;;;;;;;5015406;28;20214;-80
2023/10/12 05:09:50;;;;;;;10.43;6.80;;;;;;;;;;4984376;28;20217;-80
2023/10/12 05:12:17;;;;;;;14.03;7.23;;;;;;;;;;5012500;28;20252;-79
2023/10/12 05:14:43;;;;;;;13.23;6.97;;;;;;;;;;5004262;28;20187;-84
2023/10/12 05:17:09;;;;;;;13.00;6.13;;;;;;;;;;5010751;28;20198;-79
2023/10/12 05:19:35;;;;;;;9.50;5.80;;;;;;;;;;4996286;28;20191;-81
2023/10/12 05:22:02;;;;;;;9.60;5.53;;;;;;;;;;4995646;28;20215;-81
2023/10/12 05:24:28;;;;;;;10.13;6.03;;;;;;;;;;4973832;28;20235;-80
2023/10/12 05:26:58;;;;;;;13.13;6.27;;;;;;;;;;5012272;28;20188;-80
2023/10/12 05:32:06;;;;;;;12.63;6.67;;;;;;;;;;4997025;28;20206;-85
2023/10/12 05:39:46;;;;;;;10.97;6.17;;;;;;;;;;5007813;28;20190;-83
2023/10/12 05:42:19;;;;;;;11.20;5.80;;;;;;;;;;5001919;28;20498;-83
2023/10/12 05:44:46;;;;;;;9.90;5.37;;;;;;;;;;5021645;28;20248;-83
2023/10/12 05:47:12;;;;;;;7.67;5.37;;;;;;;;;;5018650;28;20186;-83
2023/10/12 05:49:40;;;;;;;8.17;5.13;;;;;;;;;;5002000;28;20186;-83
2023/10/12 05:52:08;;;;;;;9.00;5.60;;;;;;;;;;4998180;28;20219;-83
2023/10/12 05:54:34;;;;;;;9.80;5.60;;;;;;;;;;5008777;28;20253;-80
2023/10/12 05:57:19;;;;;;;9.67;6.13;;;;;;;;;;5000358;28;20183;-86
2023/10/12 05:59:45;;;;;;;13.73;6.30;;;;;;;;;;5005391;28;20558;-82
2023/10/12 06:02:13;;;;;;;10.77;6.57;;;;;;;;;;5026682;28;20211;-81
2023/10/12 06:04:42;;;;;;;9.13;5.83;;;;;;;;;;5019179;28;20203;-81
2023/10/12 06:07:09;;;;;;;10.07;6.63;;;;;;;;;;5017338;28;20190;-80
2023/10/12 06:09:38;;;;;;;11.27;6.93;;;;;;;;;;5008134;28;20541;-80
2023/10/12 06:12:09;;;;;;;10.23;6.60;;;;;;;;;;4999316;28;20245;-80
2023/10/12 06:14:35;;;;;;;11.13;6.27;;;;;;;;;;5003428;28;20211;-80
2023/10/12 06:17:02;;;;;;;8.67;5.33;;;;;;;;;;5004327;28;20192;-80
2023/10/12 06:19:34;;;;;;;10.30;5.83;;;;;;;;;;5003593;28;20683;-79
2023/10/12 06:22:19;;;;;;;10.17;5.50;;;;;;;;;;5003375;28;20284;-80
2023/10/12 06:24:49;;;;;;;8.33;5.67;;;;;;;;;;5017218;28;20544;-80
2023/10/12 06:29:46;;;;;;;8.90;5.57;;;;;;;;;;5007935;28;20623;-80
2023/10/12 06:32:28;;;;;;;7.60;5.10;;;;;;;;;;5023323;28;20730;-80
2023/10/12 06:45:46;;;;;;;9.77;6.17;;;;;;;;;;5011274;28;20190;-82
2023/10/12 06:51:11;;;;;;;10.97;5.60;;;;;;;;;;4996588;28;20257;-84
2023/10/12 06:53:37;;;;;;;10.73;5.93;;;;;;;;;;5004709;28;20783;-84
2023/10/12 06:58:45;;;;;;;8.40;5.33;;;;;;;;;;5004096;28;20281;-85
2023/10/12 07:01:18;;;;;;;11.53;5.57;;;;;;;;;;5023129;28;20207;-84
2023/10/12 07:03:48;;;;;;;8.23;5.57;;;;;;;;;;5023034;28;20217;-84
2023/10/12 07:06:15;;;;;;;10.43;5.97;;;;;;;;;;4987301;28;20187;-84
2023/10/12 07:08:46;;;;;;;12.83;5.90;;;;;;;;;;4990802;28;20709;-86
2023/10/12 07:11:14;;;;;;;9.37;5.80;;;;;;;;;;5007715;28;20210;-84
2023/10/12 07:13:41;;;;;;;12.30;6.23;;;;;;;;;;4992837;28;20281;-84
2023/10/12 07:16:10;;;;;;;8.00;5.83;;;;;;;;;;4988203;28;20615;-84
2023/10/12 07:18:43;;;;;;;13.77;6.30;;;;;;;;;;5003551;28;20733;-84
2023/10/12 07:21:20;;;;;;;8.77;5.37;;;;;;;;;;4979699;28;20264;-84
2023/10/12 07:23:52;;;;;;;10.07;6.03;;;;;;;;;;5003438;28;20332;-84
2023/10/12 07:26:23;;;;;;;10.80;6.03;;;;;;;;;;4993990;28;20190;-85
2023/10/12 07:28:50;;;;;;;12.80;6.53;;;;;;;;;;4995530;28;20595;-85
2023/10/12 07:33:51;;;;;;;11.17;6.07;;;;;;;;;;5018611;28;20179;-84
2023/10/12 07:36:18;;;;;;;10.47;6.43;;;;;;;;;;5003258;28;20186;-86
2023/10/12 07:38:46;;;;;;;13.03;6.67;;;;;;;;;;5025225;28;20181;-85
2023/10/12 07:41:13;;;;;;;8.33;5.87;;;;;;;;;;4997935;28;20210;-86
2023/10/12 07:43:41;;;;;;;9.57;5.90;;;;;;;;;;4981672;28;20257;-85
2023/10/12 07:46:13;;;;;;;11.00;5.90;;;;;;;;;;4997433;28;20194;-85
2023/10/12 07:48:42;;;;;;;10.37;5.80;;;;;;;;;;4978274;28;20182;-85
2023/10/12 07:51:53;;;;;;;11.90;5.63;;;;;;;;;;4990966;28;20207;-86
2023/10/12 07:54:25;;;;;;;9.43;5.73;;;;;;;;;;4989667;28;20253;-84
2023/10/12 07:56:52;;;;;;;8.20;5.43;;;;;;;;;;4990124;28;20197;-86
2023/10/12 07:59:22;;;;;;;9.90;5.47;;;;;;;;;;4971189;28;20602;-86
2023/10/12 08:01:50;;;;;;;9.53;5.57;;;;;;;;;;4977205;28;20220;-86
2023/10/12 08:07:08;;;;;;;7.57;5.53;;;;;;;;;;4968801;28;20229;-86
2023/10/12 08:09:47;;;;;;;6.87;5.07;;;;;;;;;;4978526;28;20275;-87
2023/10/12 08:12:25;;;;;;;7.27;5.20;;;;;;;;;;4978543;28;20217;-87
2023/10/12 08:15:07;;;;;;;10.40;5.57;;;;;;;;;;4999524;28;20706;-85
2023/10/12 08:17:33;;;;;;;9.53;5.57;;;;;;;;;;5010808;28;20206;-87
2023/10/12 08:22:46;;;;;;;9.13;5.10;;;;;;;;;;5013147;28;20636;-86
2023/10/12 08:25:14;;;;;;;11.07;5.63;;;;;;;;;;5012437;28;20186;-85
2023/10/12 08:27:53;;;;;;;8.50;5.67;;;;;;;;;;5028038;28;20232;-85
2023/10/12 08:30:23;;;;;;;11.17;5.77;;;;;;;;;;5005866;28;20179;-86
2023/10/12 08:32:58;;;;;;;8.03;5.90;;;;;;;;;;5032621;28;20206;-85
2023/10/12 08:38:15;;;;;;;9.73;6.20;;;;;;;;;;5006925;28;20301;-86
2023/10/12 08:43:44;;;;;;;9.60;5.57;;;;;;;;;;5010067;28;20690;-85
2023/10/12 08:46:12;;;;;;;7.47;5.57;;;;;;;;;;4986480;28;20274;-85
2023/10/12 08:48:52;;;;;;;8.73;5.03;;;;;;;;;;5006434;28;20214;-85
2023/10/12 08:51:23;;;;;;;13.30;5.93;;;;;;;;;;5019623;28;20217;-88
2023/10/12 08:53:50;;;;;;;9.17;5.43;;;;;;;;;;5000971;28;20186;-87
2023/10/12 08:56:18;;;;;;;12.10;5.80;;;;;;;;;;5030808;28;20193;-85
2023/10/12 08:58:48;;;;;;;10.63;5.87;;;;;;;;;;4983070;28;20207;-87
2023/10/12 09:01:31;;;;;;;11.73;6.10;;;;;;;;;;5003823;28;20630;-85
2023/10/12 09:04:03;;;;;;;9.70;5.50;;;;;;;;;;4989882;28;20210;-86
2023/10/12 09:06:52;;;;;;;10.10;6.40;;;;;;;;;;4997559;28;20274;-85
2023/10/12 09:09:48;;;;;;;9.17;5.70;;;;;;;;;;5008632;28;20875;-85
2023/10/12 09:12:01;;;;;;;8.07;5.30;;;;;;;;;;5026095;28;20206;-84
2023/10/12 09:14:28;;;;;;;10.90;5.87;;;;;;;;;;4988157;28;20256;-86
2023/10/12 09:16:54;;;;;;;10.93;5.97;;;;;;;;;;4992507;28;20190;-85
2023/10/12 09:19:28;;;;;;;9.53;5.50;;;;;;;;;;5010952;28;20275;-85
2023/10/12 09:22:02;;;;;;;9.27;5.30;;;;;;;;;;5019563;28;20213;-86
2023/10/12 09:24:36;;;;;;;10.60;6.00;;;;;;;;;;4999606;28;20224;-83
2023/10/12 09:27:14;;;;;;;10.33;5.93;;;;;;;;;;4984183;28;20187;-85
2023/10/12 09:29:59;;;;;;;9.73;5.63;;;;;;;;;;5011674;28;20182;-84
2023/10/12 09:32:26;;;;;;;13.43;6.37;;;;;;;;;;5000168;28;20210;-82
2023/10/12 09:37:44;;;;;;;13.27;6.50;;;;;;;;;;5019435;28;20274;-83
2023/10/12 09:40:35;;;;;;;11.17;6.50;;;;;;;;;;4998513;28;20187;-83
2023/10/12 09:43:06;;;;;;;12.03;6.37;;;;;;;;;;5014670;28;20208;-82
2023/10/12 09:45:45;;;;;;;9.70;6.13;;;;;;;;;;5005823;28;20187;-85
2023/10/12 09:48:19;;;;;;;11.47;6.03;;;;;;;;;;5020188;28;20231;-82
2023/10/12 09:50:48;;;;;;;7.87;5.50;;;;;;;;;;5007295;28;20183;-79
2023/10/12 09:53:24;;;;;;;15.83;6.37;;;;;;;;;;5026729;28;20246;-80
2023/10/12 09:56:15;;;;;;;9.83;5.50;;;;;;;;;;5022264;28;20186;-80
2023/10/12 09:59:29;;;;;;;9.33;5.43;;;;;;;;;;4991159;28;20637;-78
2023/10/12 10:06:52;;;;;;;12.07;6.07;;;;;;;;;;5015458;28;20198;-81
2023/10/12 10:09:37;;;;;;;11.33;6.33;;;;;;;;;;5019483;28;20270;-79
2023/10/12 10:12:08;;;;;;;10.23;5.73;;;;;;;;;;4981342;28;20569;-83
2023/10/12 10:14:36;;;;;;;13.93;6.20;;;;;;;;;;5010296;28;20764;-81
2023/10/12 10:17:07;;;;;;;8.37;5.60;;;;;;;;;;5023583;28;20186;-81
2023/10/12 10:19:33;;;;;;;8.60;6.20;;;;;;;;;;5018587;28;20655;-83
2023/10/12 10:22:07;;;;;;;10.33;5.60;;;;;;;;;;5021062;28;20206;-80
2023/10/12 10:24:43;;;;;;;11.07;6.17;;;;;;;;;;5019861;28;20210;-82
2023/10/12 10:27:11;;;;;;;10.63;5.93;;;;;;;;;;4989759;28;20191;-81
2023/10/12 10:29:53;;;;;;;11.83;6.60;;;;;;;;;;5003793;28;20639;-84
2023/10/12 10:32:23;;;;;;;15.10;6.23;;;;;;;;;;5019208;28;20198;-83
2023/10/12 10:34:56;;;;;;;11.87;5.90;;;;;;;;;;5003185;28;20194;-80
2023/10/12 10:37:47;;;;;;;14.40;6.60;;;;;;;;;;5015512;28;20666;-81
2023/10/12 10:40:20;;;;;;;9.60;6.50;;;;;;;;;;5011683;28;20911;-81
2023/10/12 10:42:57;;;;;;;11.03;6.13;;;;;;;;;;5001697;28;20565;-80
2023/10/12 10:45:25;;;;;;;12.43;6.30;;;;;;;;;;5000829;28;20226;-79
2023/10/12 10:47:51;;;;;;;11.53;6.67;;;;;;;;;;5002015;28;20579;-81
2023/10/12 10:50:20;;;;;;;10.57;7.07;;;;;;;;;;5018177;28;20275;-82
2023/10/12 10:52:46;;;;;;;14.97;6.47;;;;;;;;;;4993745;28;20203;-82
2023/10/12 10:55:18;;;;;;;11.27;6.47;;;;;;;;;;5024128;28;20232;-90
2023/10/12 10:57:45;;;;;;;15.73;7.10;;;;;;;;;;5004169;28;20178;-83
2023/10/12 11:00:15;;;;;;;13.53;6.63;;;;;;;;;;5001838;28;20187;-84
2023/10/12 11:02:41;;;;;;;13.43;7.17;;;;;;;;;;5004123;28;20206;-84
2023/10/12 11:05:11;;;;;;;9.80;6.60;;;;;;;;;;5021046;28;20556;-84
2023/10/12 11:07:40;;;;;;;13.13;7.83;;;;;;;;;;4987860;28;20210;-84
2023/10/12 11:10:08;;;;;;;13.20;7.10;;;;;;;;;;4989207;28;20586;-82
2023/10/12 11:12:36;;;;;;;19.27;7.57;;;;;;;;;;5004796;28;21568;-83
2023/10/12 11:15:09;;;;;;;15.50;7.20;;;;;;;;;;5021442;28;20183;-83
2023/10/12 11:18:05;;;;;;;12.60;7.07;;;;;;;;;;4998769;28;20290;-82
2023/10/12 11:20:38;;;;;;;11.20;7.30;;;;;;;;;;5022575;28;20198;-83
2023/10/12 11:23:07;;;;;;;9.80;6.33;;;;;;;;;;5022401;28;20264;-83
2023/10/12 11:25:39;;;;;;;13.00;7.37;;;;;;;;;;5019975;28;20180;-82
2023/10/12 11:28:21;;;;;;;11.57;6.60;;;;;;;;;;5002184;28;20218;-82
2023/10/12 11:30:49;;;;;;;12.87;6.50;;;;;;;;;;5000943;28;20239;-82
2023/10/12 11:33:16;;;;;;;12.60;6.90;;;;;;;;;;4998094;28;20750;-82
2023/10/12 11:35:43;;;;;;;9.67;7.03;;;;;;;;;;5022168;28;20189;-82
2023/10/12 11:38:17;;;;;;;14.37;7.40;;;;;;;;;;5011590;28;20240;-82
2023/10/12 11:40:44;;;;;;;14.47;6.90;;;;;;;;;;4987622;28;20277;-82
2023/10/12 11:43:11;;;;;;;11.20;6.97;;;;;;;;;;5003673;28;20232;-82
2023/10/12 11:45:53;;;;;;;13.10;7.50;;;;;;;;;;5021787;28;20195;-82
2023/10/12 11:48:21;;;;;;;10.60;6.87;;;;;;;;;;5009133;28;20201;-82
2023/10/12 11:50:48;;;;;;;11.43;6.83;;;;;;;;;;5003115;28;20642;-82
2023/10/12 11:53:17;;;;;;;11.83;6.67;;;;;;;;;;5018402;28;20183;-82
2023/10/12 11:55:44;;;;;;;12.83;7.07;;;;;;;;;;5021019;28;20266;-83
2023/10/12 11:58:16;;;;;;;12.70;6.87;;;;;;;;;;5018114;28;20191;-82
2023/10/12 12:00:50;;;;;;;9.67;7.03;;;;;;;;;;5018660;28;20208;-82
2023/10/12 12:03:17;;;;;;;11.07;6.67;;;;;;;;;;5024977;28;20206;-82
2023/10/12 12:05:50;;;;;;;13.27;7.10;;;;;;;;;;5030335;28;20178;-82
2023/10/12 12:08:18;;;;;;;7.50;6.70;;;;;;;;;;5007738;28;20183;-85
2023/10/12 12:10:45;;;;;;;13.43;7.73;;;;;;;;;;4991179;28;20233;-85
2023/10/12 12:13:12;;;;;;;11.27;6.70;;;;;;;;;;4975778;28;20256;-85
2023/10/12 12:15:44;;;;;;;12.00;7.27;;;;;;;;;;5016204;28;20280;-87
2023/10/12 12:18:19;;;;;;;11.77;7.80;;;;;;;;;;4965202;28;20195;-85
2023/10/12 12:20:58;;;;;;;9.83;7.50;;;;;;;;;;4983815;28;20197;-83
2023/10/12 12:23:27;;;;;;;13.50;7.63;;;;;;;;;;5016155;28;20705;-84
2023/10/12 12:26:04;;;;;;;14.60;7.73;;;;;;;;;;5020587;28;20713;-89
2023/10/12 12:28:33;;;;;;;11.00;7.50;;;;;;;;;;4986005;28;20198;-85
2023/10/12 12:31:13;;;;;;;12.87;8.00;;;;;;;;;;4995712;28;20202;-86
2023/10/12 12:33:43;;;;;;;13.63;8.13;;;;;;;;;;5024914;28;20679;-86
2023/10/12 12:36:21;;;;;;;10.80;8.00;;;;;;;;;;4996540;28;20198;-86
2023/10/12 12:41:35;;;;;;;13.13;8.70;;;;;;;;;;5003391;28;20353;-86
2023/10/12 12:44:01;;;;;;;13.10;8.20;;;;;;;;;;5031754;28;20210;-85
2023/10/12 12:46:30;;;;;;;13.40;8.97;;;;;;;;;;5013848;28;20273;-86
2023/10/12 12:48:57;;;;;;;14.33;8.63;;;;;;;;;;5009846;28;20677;-86
2023/10/12 12:51:23;;;;;;;13.40;8.70;;;;;;;;;;4986867;28;20211;-86
2023/10/12 12:53:51;;;;;;;12.63;8.73;;;;;;;;;;5001846;28;20187;-86
2023/10/12 12:56:18;;;;;;;13.00;8.77;;;;;;;;;;4985218;28;20191;-86
2023/10/12 12:58:48;;;;;;;11.57;8.90;;;;;;;;;;4995756;28;20586;-87
2023/10/12 13:01:19;;;;;;;11.97;8.20;;;;;;;;;;5019618;28;20717;-86
2023/10/12 13:03:45;;;;;;;14.20;9.20;;;;;;;;;;5002469;28;20739;-86
2023/10/12 13:06:12;;;;;;;17.23;10.37;;;;;;;;;;4993047;28;20279;-85
2023/10/12 13:08:38;;;;;;;13.93;11.33;;;;;;;;;;4984995;28;20183;-85
2023/10/12 13:11:04;;;;;;;17.77;12.17;;;;;;;;;;4993929;28;20349;-86
2023/10/12 13:13:33;;;;;;;14.63;10.63;;;;;;;;;;4995680;28;20577;-88
2023/10/12 13:16:03;;;;;;;11.73;9.77;;;;;;;;;;4968422;28;20180;-86
2023/10/12 13:18:32;;;;;;;13.90;9.27;;;;;;;;;;4997174;28;20630;-86
2023/10/12 13:20:59;;;;;;;12.67;9.43;;;;;;;;;;4992742;28;20322;-86
2023/10/12 13:23:25;;;;;;;12.60;8.87;;;;;;;;;;4997163;28;20214;-86
2023/10/12 13:25:52;;;;;;;14.47;10.77;;;;;;;;;;4968103;28;20283;-87
2023/10/12 13:28:18;;;;;;;13.27;10.00;;;;;;;;;;4967415;28;20180;-86
2023/10/12 13:30:45;;;;;;;15.83;11.40;;;;;;;;;;4974794;28;20651;-86
2023/10/12 13:33:11;;;;;;;15.40;11.57;;;;;;;;;;4994662;28;20198;-87
2023/10/12 13:38:09;;;;;;;15.87;11.60;;;;;;;;;;5015995;28;20179;-88
2023/10/12 13:40:39;;;;;;;15.37;9.50;;;;;;;;;;4980407;28;20227;-87
2023/10/12 13:43:15;;;;;;;12.27;8.90;;;;;;;;;;5015591;28;20206;-87
2023/10/12 13:45:47;;;;;;;15.03;10.40;;;;;;;;;;4972548;28;20698;-88
2023/10/12 13:48:13;;;;;;;11.80;9.37;;;;;;;;;;5003957;28;20214;-88
2023/10/12 13:50:39;;;;;;;14.30;10.90;;;;;;;;;;5001711;28;20270;-87
2023/10/12 13:53:08;;;;;;;12.53;10.17;;;;;;;;;;5005067;28;20190;-86
2023/10/12 13:55:36;;;;;;;16.77;12.50;;;;;;;;;;4988274;28;20248;-87
2023/10/12 13:58:02;;;;;;;17.33;11.40;;;;;;;;;;4994130;28;20194;-86
2023/10/12 14:00:33;;;;;;;16.00;9.80;;;;;;;;;;4998437;28;20598;-86
2023/10/12 14:03:10;;;;;;;17.40;11.17;;;;;;;;;;4992800;28;20209;-88
2023/10/12 14:05:40;;;;;;;12.30;8.73;;;;;;;;;;5022553;28;20609;-87
2023/10/12 14:08:09;;;;;;;16.77;8.70;;;;;;;;;;5013826;28;20202;-86
2023/10/12 14:10:44;;;;;;;13.80;8.40;;;;;;;;;;4994444;28;20193;-87
2023/10/12 14:13:14;;;;;;;12.13;7.93;;;;;;;;;;4958908;28;20202;-87
2023/10/12 14:15:43;;;;;;;15.13;9.50;;;;;;;;;;4996096;28;20185;-87
2023/10/12 14:18:11;;;;;;;11.83;8.33;;;;;;;;;;5013422;28;20615;-86
2023/10/12 14:20:42;;;;;;;19.33;11.43;;;;;;;;;;5011707;28;20603;-86
2023/10/12 14:23:12;;;;;;;13.67;9.20;;;;;;;;;;4998836;28;20211;-87
2023/10/12 14:25:42;;;;;;;12.37;9.40;;;;;;;;;;4987210;28;20182;-87
2023/10/12 14:28:09;;;;;;;12.30;8.43;;;;;;;;;;5011594;28;20191;-86
2023/10/12 14:30:38;;;;;;;12.27;8.03;;;;;;;;;;4981791;28;20191;-86
2023/10/12 14:33:06;;;;;;;13.47;7.60;;;;;;;;;;4995302;28;20702;-87
2023/10/12 14:35:40;;;;;;;8.40;6.60;;;;;;;;;;4990850;28;20234;-87
2023/10/12 14:38:06;;;;;;;11.50;7.80;;;;;;;;;;4982169;28;20198;-87
2023/10/12 14:40:33;;;;;;;11.43;8.87;;;;;;;;;;4997986;28;20191;-87
2023/10/12 14:43:05;;;;;;;14.33;10.40;;;;;;;;;;4995040;28;20230;-86
2023/10/12 14:45:38;;;;;;;14.33;9.83;;;;;;;;;;4996456;28;20218;-87
2023/10/12 14:48:10;;;;;;;15.07;9.20;;;;;;;;;;5009491;28;20183;-87
2023/10/12 14:50:38;;;;;;;15.40;10.10;;;;;;;;;;4997957;28;20182;-88
2023/10/12 14:53:05;;;;;;;11.73;8.33;;;;;;;;;;4987787;28;20273;-87
2023/10/12 14:55:31;;;;;;;12.27;8.30;;;;;;;;;;5011502;28;20684;-87
2023/10/12 14:57:57;;;;;;;13.13;8.00;;;;;;;;;;4974627;28;20695;-87
2023/10/12 15:00:23;;;;;;;12.27;8.40;;;;;;;;;;4961874;28;20241;-87
2023/10/12 15:02:53;;;;;;;14.87;9.57;;;;;;;;;;4962331;28;20345;-87
2023/10/12 15:05:25;;;;;;;18.30;11.20;;;;;;;;;;4963897;28;20184;-86
2023/10/12 15:07:52;;;;;;;20.70;11.27;;;;;;;;;;4998432;28;20182;-87
2023/10/12 15:10:18;;;;;;;15.13;10.10;;;;;;;;;;5010413;28;20195;-85
2023/10/12 15:12:48;;;;;;;12.10;8.37;;;;;;;;;;4983718;28;20207;-87
2023/10/12 15:15:18;;;;;;;12.53;8.60;;;;;;;;;;4998457;28;20175;-87
2023/10/12 15:17:45;;;;;;;13.30;8.30;;;;;;;;;;4977759;28;20194;-88
2023/10/12 15:20:18;;;;;;;15.77;9.63;;;;;;;;;;4993134;28;20190;-87
2023/10/12 15:22:45;;;;;;;21.70;12.13;;;;;;;;;;4974457;28;20650;-86
2023/10/12 15:25:16;;;;;;;19.73;12.63;;;;;;;;;;5004783;28;20187;-88
2023/10/12 15:27:44;;;;;;;14.07;9.63;;;;;;;;;;5002258;28;22424;-84
2023/10/12 15:30:10;;;;;;;20.47;10.60;;;;;;;;;;4965328;28;20183;-81
2023/10/12 15:32:42;;;;;;;23.20;13.83;;;;;;;;;;5010026;28;20209;-86
2023/10/12 15:35:12;;;;;;;15.30;10.47;;;;;;;;;;4963589;28;20195;-89
2023/10/12 15:37:40;;;;;;;13.83;9.67;;;;;;;;;;4963194;28;20191;-90
2023/10/12 15:40:11;;;;;;;14.53;8.93;;;;;;;;;;4964342;28;20658;-89
2023/10/12 15:42:37;;;;;;;15.60;9.87;;;;;;;;;;4961227;28;20211;-89
2023/10/12 15:45:03;;;;;;;16.50;10.23;;;;;;;;;;4979304;28;20704;-89
2023/10/12 15:47:30;;;;;;;18.67;11.07;;;;;;;;;;4971614;28;20278;-90
2023/10/12 15:49:58;;;;;;;15.03;10.50;;;;;;;;;;4976690;28;20552;-89
2023/10/12 15:52:25;;;;;;;15.77;9.57;;;;;;;;;;4982500;28;20206;-90
2023/10/12 15:54:51;;;;;;;22.97;12.53;;;;;;;;;;4979138;28;20192;-89
2023/10/12 15:57:17;;;;;;;19.23;12.37;;;;;;;;;;4976697;28;20262;-88
2023/10/12 15:59:44;;;;;;;19.17;11.90;;;;;;;;;;4985139;28;20195;-90
2023/10/12 16:02:10;;;;;;;18.90;12.33;;;;;;;;;;4965171;28;20211;-89
2023/10/12 16:04:37;;;;;;;20.53;13.83;;;;;;;;;;4977690;28;20298;-89
2023/10/12 16:07:05;;;;;;;16.13;11.43;;;;;;;;;;4973621;28;20195;-89
2023/10/12 16:09:32;;;;;;;18.43;9.63;;;;;;;;;;4964273;28;20184;-89
2023/10/12 16:12:03;;;;;;;16.20;10.33;;;;;;;;;;5005043;28;20230;-90
2023/10/12 16:14:29;;;;;;;12.30;9.23;;;;;;;;;;4974054;28;20221;-89
2023/10/12 16:16:55;;;;;;;15.03;8.63;;;;;;;;;;4986491;28;20678;-89
2023/10/12 16:19:22;;;;;;;13.87;9.23;;;;;;;;;;4979079;28;20191;-88
2023/10/12 16:21:48;;;;;;;9.13;7.43;;;;;;;;;;4972698;28;20704;-89
2023/10/12 16:24:16;;;;;;;12.13;9.47;;;;;;;;;;4990573;28;20261;-89
2023/10/12 16:26:43;;;;;;;11.03;8.93;;;;;;;;;;4997566;28;20202;-89
2023/10/12 16:29:11;;;;;;;12.10;7.70;;;;;;;;;;4978332;28;20278;-89
2023/10/12 16:31:38;;;;;;;11.03;7.97;;;;;;;;;;4995447;28;20195;-89
2023/10/12 16:34:06;;;;;;;11.27;8.00;;;;;;;;;;4978542;28;20710;-89
2023/10/12 16:36:35;;;;;;;12.57;8.67;;;;;;;;;;4994478;28;20270;-88
2023/10/12 16:39:03;;;;;;;15.30;8.93;;;;;;;;;;4980549;28;20190;-89
2023/10/12 16:41:33;;;;;;;15.17;8.73;;;;;;;;;;4984158;28;20202;-89
2023/10/12 16:43:59;;;;;;;10.53;8.53;;;;;;;;;;4998385;28;20244;-89
2023/10/12 16:46:25;;;;;;;11.20;8.90;;;;;;;;;;4965111;28;20424;-90
2023/10/12 16:48:52;;;;;;;13.70;9.10;;;;;;;;;;4985309;28;20175;-89
2023/10/12 16:51:19;;;;;;;13.17;9.53;;;;;;;;;;4979565;28;20204;-89
2023/10/12 16:53:45;;;;;;;11.33;9.10;;;;;;;;;;4982191;28;20197;-89
2023/10/12 16:56:12;;;;;;;13.73;8.27;;;;;;;;;;4981565;28;20203;-89
2023/10/12 16:58:42;;;;;;;14.83;9.27;;;;;;;;;;4984169;28;20291;-89
2023/10/12 17:01:14;;;;;;;14.13;9.23;;;;;;;;;;4973182;28;20250;-89
2023/10/12 17:03:40;;;;;;;11.85;9.52;;;;;;;;;;4979859;28;20501;-88